createdAt,value
2018-12-16T00:00:41.831Z,102058.89
2018-12-16T00:03:10.104Z,102053.65
2018-12-16T00:05:38.324Z,102051.05
2018-12-16T00:08:06.478Z,102048.02
2018-12-16T00:10:34.701Z,102037.64
2018-12-16T00:13:02.885Z,102045.39
2018-12-16T00:15:31.198Z,102037.61
2018-12-16T00:17:59.371Z,102026.36
2018-12-16T00:20:27.670Z,102019.87
2018-12-16T00:22:55.885Z,102027.20
2018-12-16T00:25:24.232Z,102026.80
2018-12-16T00:27:52.410Z,102021.59
2018-12-16T00:30:20.812Z,102017.25
2018-12-16T00:32:48.998Z,102014.23
2018-12-16T00:35:17.158Z,102015.95
2018-12-16T00:37:45.397Z,102014.25
2018-12-16T00:40:13.834Z,102013.80
2018-12-16T00:42:42.009Z,102010.77
2018-12-16T00:45:10.355Z,102007.75
2018-12-16T00:47:38.575Z,102008.15
2018-12-16T00:50:07.067Z,102000.83
2018-12-16T00:52:36.586Z,102003.86
2018-12-16T00:55:05.370Z,101998.66
2018-12-16T00:57:33.683Z,101991.72
2018-12-16T01:00:01.828Z,101996.02
2018-12-16T01:02:35.274Z,102004.67
2018-12-16T01:05:03.675Z,102002.95
2018-12-16T01:07:31.997Z,102000.34
2018-12-16T01:10:00.260Z,102004.67
2018-12-16T01:12:28.541Z,101999.52
2018-12-16T01:14:56.753Z,102001.62
2018-12-16T01:17:24.977Z,102000.34
2018-12-16T01:19:53.287Z,101989.55
2018-12-16T01:22:21.623Z,101998.63
2018-12-16T01:24:49.911Z,101998.63
2018-12-16T01:27:18.830Z,101999.91
2018-12-16T01:29:47.157Z,102000.38
2018-12-16T01:32:15.287Z,101996.05
2018-12-16T01:34:43.458Z,101986.96
2018-12-16T01:37:11.704Z,101987.88
2018-12-16T01:39:39.917Z,101985.70
2018-12-16T01:42:08.213Z,101980.05
2018-12-16T01:44:36.471Z,101989.16
2018-12-16T01:47:04.791Z,101989.59
2018-12-16T01:49:33.035Z,101977.06
2018-12-16T01:52:01.388Z,101962.36
2018-12-16T01:54:29.666Z,101969.28
2018-12-16T01:56:57.942Z,101960.19
2018-12-16T01:59:26.111Z,101949.83
2018-12-16T02:01:55.220Z,101947.64
2018-12-16T02:04:24.485Z,101938.13
2018-12-16T02:06:52.869Z,101929.03
2018-12-16T02:09:21.140Z,101913.88
2018-12-16T02:11:49.358Z,101906.98
2018-12-16T02:14:17.582Z,101919.11
2018-12-16T02:16:45.805Z,101905.24
2018-12-16T02:19:14.120Z,101890.53
2018-12-16T02:21:42.279Z,101897.02
2018-12-16T02:24:10.415Z,101889.66
2018-12-16T02:26:38.655Z,101876.70
2018-12-16T02:29:06.973Z,101877.99
2018-12-16T02:31:35.233Z,101868.03
2018-12-16T02:34:03.433Z,101867.16
2018-12-16T02:36:31.662Z,101871.50
2018-12-16T02:38:59.887Z,101861.97
2018-12-16T02:41:28.187Z,101853.76
2018-12-16T02:43:56.556Z,101852.45
2018-12-16T02:46:24.697Z,101853.32
2018-12-16T02:48:53.029Z,101854.17
2018-12-16T02:51:21.266Z,101850.74
2018-12-16T02:53:49.526Z,101845.53
2018-12-16T02:56:17.707Z,101845.09
2018-12-16T02:58:45.996Z,101846.41
2018-12-16T03:01:14.360Z,101844.66
2018-12-16T03:03:42.752Z,101836.91
2018-12-16T03:06:10.939Z,101835.61
2018-12-16T03:08:39.183Z,101835.58
2018-12-16T03:11:07.419Z,101835.61
2018-12-16T03:13:35.663Z,101823.92
2018-12-16T03:16:03.872Z,101815.27
2018-12-16T03:18:32.013Z,101806.19
2018-12-16T03:21:00.211Z,101805.76
2018-12-16T03:23:28.541Z,101806.63
2018-12-16T03:25:56.825Z,101801.00
2018-12-16T03:28:24.982Z,101796.22
2018-12-16T03:30:53.207Z,101792.34
2018-12-16T03:33:21.346Z,101793.20
2018-12-16T03:35:49.505Z,101781.07
2018-12-16T03:38:17.754Z,101782.78
2018-12-16T03:40:46.043Z,101779.28
2018-12-16T03:43:14.226Z,101781.48
2018-12-16T03:45:42.383Z,101770.21
2018-12-16T03:48:10.536Z,101768.48
2018-12-16T03:50:38.769Z,101752.90
2018-12-16T03:53:06.945Z,101755.03
2018-12-16T03:55:35.121Z,101737.31
2018-12-16T03:58:03.464Z,101740.79
2018-12-16T04:00:31.712Z,101730.40
2018-12-16T04:02:59.868Z,101726.91
2018-12-16T04:05:28.133Z,101719.58
2018-12-16T04:07:56.321Z,101723.87
2018-12-16T04:10:24.494Z,101702.66
2018-12-16T04:12:52.757Z,101699.58
2018-12-16T04:15:20.989Z,101697.89
2018-12-16T04:17:49.223Z,101692.66
2018-12-16T04:20:17.822Z,101687.89
2018-12-16T04:22:46.013Z,101685.72
2018-12-16T04:25:14.196Z,101679.67
2018-12-16T04:27:42.375Z,101672.70
2018-12-16T04:30:10.660Z,101669.68
2018-12-16T04:32:38.799Z,101654.97
2018-12-16T04:35:07.112Z,101650.66
2018-12-16T04:37:35.539Z,101643.25
2018-12-16T04:40:04.144Z,101630.78
2018-12-16T04:42:32.316Z,101644.59
2018-12-16T04:45:00.462Z,101638.96
2018-12-16T04:47:28.659Z,101632.91
2018-12-16T04:49:56.827Z,101629.39
2018-12-16T04:52:24.999Z,101639.39
2018-12-16T04:54:53.149Z,101646.72
2018-12-16T04:57:21.380Z,101644.52
2018-12-16T04:59:49.578Z,101648.85
2018-12-16T05:02:17.922Z,101644.91
2018-12-16T05:04:46.228Z,101640.13
2018-12-16T05:07:14.472Z,101638.39
2018-12-16T05:09:42.641Z,101634.02
2018-12-16T05:12:10.943Z,101637.47
2018-12-16T05:14:39.180Z,101633.56
2018-12-16T05:17:07.425Z,101630.07
2018-12-16T05:19:35.624Z,101630.05
2018-12-16T05:22:03.864Z,101642.61
2018-12-16T05:24:32.056Z,101636.53
2018-12-16T05:27:00.202Z,101632.62
2018-12-16T05:29:28.542Z,101620.98
2018-12-16T05:31:56.712Z,101628.26
2018-12-16T05:34:24.882Z,101623.04
2018-12-16T05:36:53.056Z,101619.58
2018-12-16T05:39:21.308Z,101614.84
2018-12-16T05:41:49.504Z,101602.69
2018-12-16T05:44:17.680Z,101603.11
2018-12-16T05:46:45.979Z,101600.88
2018-12-16T05:49:14.232Z,101597.88
2018-12-16T05:51:42.413Z,101583.19
2018-12-16T05:54:10.654Z,101581.88
2018-12-16T05:56:38.779Z,101582.17
2018-12-16T05:59:06.944Z,101580.59
2018-12-16T06:01:35.124Z,101583.17
2018-12-16T06:04:03.407Z,101585.33
2018-12-16T06:06:31.622Z,101576.67
2018-12-16T06:08:59.834Z,101569.73
2018-12-16T06:11:28.161Z,101565.41
2018-12-16T06:13:56.393Z,101549.00
2018-12-16T06:16:24.546Z,101540.77
2018-12-16T06:18:52.684Z,101536.05
2018-12-16T06:21:20.897Z,101528.23
2018-12-16T06:23:55.316Z,101520.02
2018-12-16T06:26:19.513Z,101523.05
2018-12-16T06:28:47.882Z,101532.13
2018-12-16T06:31:16.108Z,101533.45
2018-12-16T06:33:44.282Z,101535.16
2018-12-16T06:36:12.444Z,101539.05
2018-12-16T06:38:40.625Z,101536.05
2018-12-16T06:41:08.816Z,101531.25
2018-12-16T06:43:36.980Z,101537.75
2018-12-16T06:46:05.225Z,101536.83
2018-12-16T06:48:33.416Z,101532.06
2018-12-16T06:51:01.726Z,101532.48
2018-12-16T06:53:29.940Z,101520.34
2018-12-16T06:55:58.082Z,101530.31
2018-12-16T06:58:26.358Z,101524.25
2018-12-16T07:00:54.623Z,101527.67
2018-12-16T07:03:22.776Z,101535.08
2018-12-16T07:05:51.047Z,101539.42
2018-12-16T07:08:19.190Z,101538.53
2018-12-16T07:10:47.445Z,101529.44
2018-12-16T07:13:15.686Z,101522.95
2018-12-16T07:15:44.036Z,101529.89
2018-12-16T07:18:12.310Z,101523.82
2018-12-16T07:20:40.635Z,101528.60
2018-12-16T07:23:08.862Z,101526.38
2018-12-16T07:25:36.995Z,101523.41
2018-12-16T07:28:05.471Z,101523.45
2018-12-16T07:30:33.648Z,101532.50
2018-12-16T07:33:01.900Z,101537.70
2018-12-16T07:35:30.113Z,101532.50
2018-12-16T07:37:58.268Z,101541.19
2018-12-16T07:40:26.656Z,101535.56
2018-12-16T07:42:55.183Z,101536.86
2018-12-16T07:45:23.515Z,101538.17
2018-12-16T07:47:51.871Z,101526.42
2018-12-16T07:50:20.154Z,101527.31
2018-12-16T07:52:48.465Z,101533.02
2018-12-16T07:55:16.910Z,101520.85
2018-12-16T07:57:45.130Z,101526.89
2018-12-16T08:00:13.436Z,101515.19
2018-12-16T08:02:41.644Z,101524.75
2018-12-16T08:05:09.885Z,101514.30
2018-12-16T08:07:38.136Z,101520.34
2018-12-16T08:10:06.412Z,101515.61
2018-12-16T08:12:35.076Z,101513.43
2018-12-16T08:15:03.421Z,101512.64
2018-12-16T08:17:31.581Z,101502.66
2018-12-16T08:19:59.765Z,101502.20
2018-12-16T08:22:27.959Z,101504.80
2018-12-16T08:24:56.131Z,101490.48
2018-12-16T08:27:24.325Z,101493.94
2018-12-16T08:29:52.525Z,101498.70
2018-12-16T08:32:20.676Z,101489.16
2018-12-16T08:34:48.825Z,101484.83
2018-12-16T08:37:17.052Z,101490.86
2018-12-16T08:39:45.449Z,101480.52
2018-12-16T08:42:13.592Z,101483.95
2018-12-16T08:44:41.944Z,101480.06
2018-12-16T08:47:10.210Z,101474.43
2018-12-16T08:49:39.767Z,101462.69
2018-12-16T08:52:07.923Z,101475.70
2018-12-16T08:54:36.064Z,101473.11
2018-12-16T08:57:04.367Z,101481.33
2018-12-16T08:59:32.580Z,101484.31
2018-12-16T09:02:00.812Z,101481.33
2018-12-16T09:04:29.069Z,101477.41
2018-12-16T09:06:57.390Z,101472.20
2018-12-16T09:09:26.064Z,101470.44
2018-12-16T09:11:55.109Z,101470.02
2018-12-16T09:14:23.316Z,101464.83
2018-12-16T09:16:51.562Z,101462.64
2018-12-16T09:19:19.870Z,101456.55
2018-12-16T09:21:48.068Z,101468.69
2018-12-16T09:24:16.343Z,101467.78
2018-12-16T09:26:44.543Z,101469.98
2018-12-16T09:29:12.888Z,101465.70
2018-12-16T09:31:41.180Z,101465.19
2018-12-16T09:34:09.517Z,101469.59
2018-12-16T09:36:37.766Z,101441.08
2018-12-16T09:39:07.944Z,101455.25
2018-12-16T09:41:36.137Z,101456.97
2018-12-16T09:44:04.434Z,101456.08
2018-12-16T09:46:32.719Z,101462.98
2018-12-16T09:49:00.953Z,101453.90
2018-12-16T09:51:29.227Z,101443.44
2018-12-16T09:53:57.537Z,101450.48
2018-12-16T09:56:26.517Z,101433.55
2018-12-16T09:58:54.700Z,101432.66
2018-12-16T10:01:23.148Z,101433.50
2018-12-16T10:03:52.494Z,101421.87
2018-12-16T10:06:20.685Z,101417.55
2018-12-16T10:08:48.837Z,101417.08
2018-12-16T10:11:17.170Z,101413.21
2018-12-16T10:13:45.393Z,101410.17
2018-12-16T10:16:13.793Z,101410.57
2018-12-16T10:18:42.076Z,101407.96
2018-12-16T10:21:10.389Z,101404.55
2018-12-16T10:23:38.587Z,101405.39
2018-12-16T10:26:06.853Z,101403.72
2018-12-16T10:28:35.237Z,101412.84
2018-12-16T10:31:03.517Z,101403.62
2018-12-16T10:33:31.866Z,101401.37
2018-12-16T10:36:00.149Z,101386.30
2018-12-16T10:38:28.345Z,101386.83
2018-12-16T10:40:56.589Z,101377.67
2018-12-16T10:43:24.735Z,101381.09
2018-12-16T10:45:52.976Z,101369.02
2018-12-16T10:48:21.169Z,101365.44
2018-12-16T10:50:49.467Z,101361.70
2018-12-16T10:53:17.703Z,101365.14
2018-12-16T10:55:46.015Z,101376.37
2018-12-16T10:58:14.200Z,101370.31
2018-12-16T11:00:47.843Z,101371.17
2018-12-16T11:03:22.660Z,101359.48
2018-12-16T11:08:43.903Z,101355.52
2018-12-16T11:11:12.148Z,101358.87
2018-12-16T11:13:40.336Z,101343.33
2018-12-16T11:16:08.541Z,101346.02
2018-12-16T11:18:43.363Z,101339.51
2018-12-16T11:21:11.603Z,101335.04
2018-12-16T11:23:39.796Z,101343.33
2018-12-16T11:26:08.875Z,101351.08
2018-12-16T11:28:37.153Z,101343.73
2018-12-16T11:31:05.408Z,101343.72
2018-12-16T11:33:33.609Z,101331.50
2018-12-16T11:36:01.902Z,101325.19
2018-12-16T11:38:30.077Z,101331.03
2018-12-16T11:40:58.342Z,101337.12
2018-12-16T11:43:26.500Z,101326.38
2018-12-16T11:45:54.660Z,101323.23
2018-12-16T11:48:22.948Z,101315.32
2018-12-16T11:50:51.258Z,101314.66
2018-12-16T11:53:19.514Z,101315.48
2018-12-16T11:55:47.752Z,101309.37
2018-12-16T11:58:15.892Z,101306.05
2018-12-16T12:00:44.180Z,101308.62
2018-12-16T12:03:12.430Z,101309.38
2018-12-16T12:05:40.634Z,101309.38
2018-12-16T12:08:08.871Z,101310.20
2018-12-16T12:10:37.044Z,101301.45
2018-12-16T12:13:06.663Z,101295.07
2018-12-16T12:15:35.434Z,101292.91
2018-12-16T12:20:25.981Z,101286.53
2018-12-16T12:22:54.324Z,101280.09
2018-12-16T12:25:22.826Z,101275.42
2018-12-16T12:27:51.050Z,101276.52
2018-12-16T12:30:19.295Z,101285.88
2018-12-16T12:32:49.191Z,101282.60
2018-12-16T12:35:17.686Z,101290.26
2018-12-16T12:37:45.921Z,101282.80
2018-12-16T12:40:14.286Z,101272.67
2018-12-16T12:42:42.506Z,101280.00
2018-12-16T12:45:10.817Z,101281.69
2018-12-16T12:47:39.095Z,101281.06
2018-12-16T12:50:08.325Z,101281.53
2018-12-16T12:52:36.617Z,101286.80
2018-12-16T12:55:05.244Z,101285.77
2018-12-16T12:57:33.505Z,101285.46
2018-12-16T13:00:01.760Z,101286.18
2018-12-16T13:02:30.109Z,101284.05
2018-12-16T13:04:58.265Z,101285.91
2018-12-16T13:07:26.469Z,101288.78
2018-12-16T13:09:54.679Z,101287.33
2018-12-16T13:12:22.999Z,101279.67
2018-12-16T13:14:51.157Z,101278.05
2018-12-16T13:17:19.465Z,101277.16
2018-12-16T13:19:47.748Z,101273.70
2018-12-16T13:22:17.990Z,101271.96
2018-12-16T13:24:57.478Z,101274.15
2018-12-16T13:27:25.613Z,101265.05
2018-12-16T13:29:53.955Z,101268.36
2018-12-16T13:32:23.284Z,101268.51
2018-12-16T13:34:53.167Z,101270.16
2018-12-16T13:37:21.772Z,101266.29
2018-12-16T13:39:51.486Z,101264.04
2018-12-16T13:42:19.889Z,101262.41
2018-12-16T13:44:48.125Z,101259.34
2018-12-16T13:47:16.367Z,101255.50
2018-12-16T13:49:44.546Z,101259.38
2018-12-16T13:52:12.781Z,101260.26
2018-12-16T13:54:40.937Z,101252.84
2018-12-16T13:57:09.146Z,101253.63
2018-12-16T13:59:37.324Z,101251.22
2018-12-16T14:02:05.601Z,101258.45
2018-12-16T14:04:33.811Z,101254.20
2018-12-16T14:07:09.241Z,101258.98
2018-12-16T14:09:39.146Z,101262.41
2018-12-16T14:12:18.928Z,101267.50
2018-12-16T14:14:47.370Z,101263.22
2018-12-16T14:17:24.800Z,101263.80
2018-12-16T14:19:53.051Z,101259.78
2018-12-16T14:22:22.116Z,101260.26
2018-12-16T14:24:50.377Z,101260.64
2018-12-16T14:27:18.700Z,101264.80
2018-12-16T14:29:47.633Z,101266.08
2018-12-16T15:29:41.171Z,101285.72
2018-12-16T15:32:09.506Z,101286.47
2018-12-16T15:34:37.723Z,101280.60
2018-12-16T15:37:06.017Z,101285.55
2018-12-16T15:39:36.289Z,101288.38
2018-12-16T15:42:04.654Z,101287.57
2018-12-16T15:44:32.975Z,101294.61
2018-12-16T15:47:02.569Z,101300.17
2018-12-16T15:49:30.978Z,101291.47
2018-12-16T15:52:00.591Z,101288.48
2018-12-16T15:54:28.844Z,101285.69
2018-12-16T15:56:57.369Z,101286.77
2018-12-16T15:59:25.601Z,101292.73
2018-12-16T16:01:53.878Z,101295.63
2018-12-16T16:04:42.252Z,101293.02
2018-12-16T16:07:10.720Z,101286.13
2018-12-16T16:12:35.697Z,101291.08
2018-12-16T16:15:04.388Z,101290.11
2018-12-16T16:17:32.742Z,101294.33
2018-12-16T16:20:03.080Z,101294.82
2018-12-16T16:22:36.941Z,101296.80
2018-12-16T16:25:06.775Z,101302.77
2018-12-16T16:27:35.054Z,101309.09
2018-12-16T16:30:03.939Z,101311.72
2018-12-16T16:32:32.221Z,101310.14
2018-12-16T16:35:02.384Z,101312.13
2018-12-16T16:37:30.605Z,101311.25
2018-12-16T16:39:59.001Z,101311.80
2018-12-16T16:42:28.780Z,101312.39
2018-12-16T16:44:57.964Z,101311.33
2018-12-16T16:47:26.543Z,101315.34
2018-12-16T16:49:56.147Z,101318.69
2018-12-16T16:52:26.859Z,101321.80
2018-12-16T16:54:55.782Z,101321.63
2018-12-16T16:57:24.115Z,101313.18
2018-12-16T16:59:53.402Z,101313.33
2018-12-16T17:02:21.659Z,101326.92
2018-12-16T17:04:50.031Z,101331.16
2018-12-16T17:07:18.246Z,101335.04
2018-12-16T17:09:46.855Z,101330.28
2018-12-16T17:12:15.994Z,101328.20
2018-12-16T17:14:44.825Z,101331.47
2018-12-16T17:17:14.083Z,101321.95
2018-12-16T17:19:42.765Z,101320.97
2018-12-16T17:22:11.880Z,101321.08
2018-12-16T17:24:40.563Z,101324.65
2018-12-16T17:27:09.143Z,101314.91
2018-12-16T17:29:51.098Z,101313.70
2018-12-16T17:32:22.236Z,101319.96
2018-12-16T17:37:58.159Z,101319.36
2018-12-16T17:40:43.486Z,101315.09
2018-12-16T17:43:11.821Z,101307.73
2018-12-16T17:45:41.320Z,101320.66
2018-12-16T17:48:09.613Z,101318.94
2018-12-16T17:50:37.839Z,101316.86
2018-12-16T17:53:08.265Z,101322.86
2018-12-16T17:55:36.969Z,101325.39
2018-12-16T17:58:12.730Z,101330.73
2018-12-16T18:00:44.788Z,101321.95
2018-12-16T18:03:17.278Z,101325.53
2018-12-16T18:05:46.363Z,101327.05
2018-12-16T18:09:16.769Z,101303.22
2018-12-16T18:11:49.064Z,101341.87
2018-12-16T18:14:18.197Z,101344.12
2018-12-16T18:16:46.580Z,101344.05
2018-12-16T18:19:14.858Z,101343.62
2018-12-16T18:21:43.200Z,101341.17
2018-12-16T18:24:11.408Z,101340.34
2018-12-16T18:26:44.062Z,101344.75
2018-12-16T18:29:10.038Z,101343.77
2018-12-16T18:31:38.636Z,101348.48
2018-12-16T18:34:10.490Z,101342.01
2018-12-16T18:36:39.128Z,101343.81
2018-12-16T18:39:09.595Z,101346.84
2018-12-16T18:41:38.098Z,101348.18
2018-12-16T18:44:06.954Z,101338.62
2018-12-16T18:46:35.570Z,101336.45
2018-12-16T18:50:28.595Z,101340.24
2018-12-16T18:52:57.107Z,101346.07
2018-12-16T18:55:25.394Z,101358.41
2018-12-16T18:57:53.606Z,101353.69
2018-12-16T19:00:22.066Z,101359.08
2018-12-16T19:02:51.752Z,101359.54
2018-12-16T19:05:20.656Z,101359.54
2018-12-16T19:07:48.984Z,101361.31
2018-12-16T19:10:17.297Z,101356.11
2018-12-16T19:12:46.674Z,101368.92
2018-12-16T19:15:15.790Z,101365.62
2018-12-16T19:17:49.077Z,101366.19
2018-12-16T19:20:25.624Z,101358.17
2018-12-16T19:22:58.414Z,101358.66
2018-12-16T19:25:26.873Z,101367.48
2018-12-16T19:27:55.093Z,101365.58
2018-12-16T19:30:48.054Z,101359.45
2018-12-16T19:33:23.252Z,101362.94
2018-12-16T19:35:52.974Z,101361.03
2018-12-16T19:38:29.879Z,101368.83
2018-12-16T19:41:02.792Z,101325.34
2018-12-16T19:43:31.850Z,101372.53
2018-12-16T19:46:11.773Z,101369.36
2018-12-16T19:48:40.276Z,101376.80
2018-12-16T19:51:13.447Z,101374.54
2018-12-16T19:53:43.280Z,101363.75
2018-12-16T19:56:17.268Z,101383.24
2018-12-16T19:58:48.235Z,101386.25
2018-12-16T20:04:08.771Z,101391.98
2018-12-16T20:06:46.672Z,101389.73
2018-12-16T20:09:18.023Z,101396.33
2018-12-16T20:11:49.411Z,101392.31
2018-12-16T20:14:19.221Z,101394.09
2018-12-16T20:16:47.453Z,101392.38
2018-12-16T20:19:23.733Z,101400.08
2018-12-16T20:21:52.327Z,101394.66
2018-12-16T20:24:20.516Z,101401.93
2018-12-16T20:26:52.280Z,101393.78
2018-12-16T20:29:20.480Z,101401.99
2018-12-16T20:31:49.330Z,101403.31
2018-12-16T20:34:18.009Z,101406.77
2018-12-16T20:36:46.463Z,101407.56
2018-12-16T20:39:14.874Z,101404.61
2018-12-16T20:41:43.230Z,101400.64
2018-12-16T20:44:11.638Z,101407.64
2018-12-16T20:46:39.918Z,101402.79
2018-12-16T20:49:08.369Z,101400.17
2018-12-16T20:51:36.702Z,101404.27
2018-12-16T20:54:07.932Z,101344.38
2018-12-16T20:56:36.526Z,101408.95
2018-12-16T20:59:11.546Z,101419.34
2018-12-16T21:01:44.601Z,101418.47
2018-12-16T21:04:13.415Z,101418.39
2018-12-16T21:06:45.724Z,101421.57
2018-12-16T21:09:19.781Z,101413.68
2018-12-16T21:11:53.505Z,101415.88
2018-12-16T21:14:30.519Z,101419.30
2018-12-16T21:17:09.492Z,101343.08
2018-12-16T21:19:38.883Z,101410.66
2018-12-16T21:22:11.247Z,101414.94
2018-12-16T21:24:43.804Z,101418.04
2018-12-16T21:27:15.459Z,101420.73
2018-12-16T21:29:43.905Z,101426.37
2018-12-16T21:32:13.482Z,101434.52
2018-12-16T21:34:41.824Z,101427.16
2018-12-16T21:37:10.116Z,101434.83
2018-12-16T21:39:38.285Z,101441.72
2018-12-16T21:42:06.587Z,101441.33
2018-12-16T21:44:34.809Z,101436.20
2018-12-16T21:47:03.098Z,101451.33
2018-12-16T21:49:31.332Z,101447.88
2018-12-16T21:53:24.193Z,101451.38
2018-12-16T21:55:53.559Z,101449.95
2018-12-16T21:58:24.210Z,101457.94
2018-12-16T22:00:59.805Z,101461.69
2018-12-16T22:03:32.101Z,101464.66
2018-12-16T22:06:07.914Z,101461.61
2018-12-16T22:08:36.208Z,101464.70
2018-12-16T22:11:05.579Z,101468.10
2018-12-16T22:13:34.129Z,101463.31
2018-12-16T22:16:02.359Z,101460.48
2018-12-16T22:18:30.652Z,101466.89
2018-12-16T22:20:58.942Z,101475.61
2018-12-16T22:23:27.173Z,101475.98
2018-12-16T22:25:55.431Z,101469.07
2018-12-16T22:28:24.013Z,101474.32
2018-12-16T22:30:52.281Z,101476.47
2018-12-16T22:33:20.496Z,101478.09
2018-12-16T22:35:50.184Z,101476.88
2018-12-16T22:38:20.483Z,101480.84
2018-12-16T22:40:48.898Z,101474.64
2018-12-16T22:43:17.433Z,101472.14
2018-12-16T22:45:46.758Z,101471.63
2018-12-16T22:48:15.430Z,101469.86
2018-12-16T22:50:43.782Z,101467.33
2018-12-16T22:53:11.957Z,101463.41
2018-12-16T22:55:40.237Z,101466.52
2018-12-16T22:58:08.532Z,101466.43
2018-12-16T23:00:41.079Z,101472.19
2018-12-16T23:03:09.937Z,101479.91
2018-12-16T23:05:42.260Z,101489.06
2018-12-16T23:08:12.681Z,101491.95
2018-12-16T23:10:40.939Z,101488.48
2018-12-16T23:13:13.385Z,101481.98
2018-12-16T23:15:41.690Z,101476.08
2018-12-16T23:18:09.928Z,101478.13
2018-12-16T23:20:38.182Z,101479.89
2018-12-16T23:23:06.473Z,101485.13
2018-12-16T23:25:34.754Z,101478.95
2018-12-16T23:28:04.153Z,101478.16
2018-12-16T23:30:32.332Z,101476.36
2018-12-16T23:33:00.591Z,101479.09
2018-12-16T23:35:28.829Z,101485.11
2018-12-16T23:37:57.017Z,101479.00
2018-12-16T23:40:25.256Z,101477.73
2018-12-16T23:42:53.551Z,101481.18
2018-12-16T23:45:21.744Z,101487.53
2018-12-16T23:47:50.123Z,101491.06
2018-12-16T23:50:18.383Z,101485.00
2018-12-16T23:52:46.620Z,101491.95
2018-12-16T23:55:14.992Z,101492.38
2018-12-16T23:57:43.245Z,101495.89
